F/V J. Louis Vincent — FQBL — position and weather

sailwx.info

Track history (hours):
 
Tides and Currents Weather Stations Pressure Air Temp Water Temp Dewpoint Dewpoint Depression Visibility Wind Speed Wind Dir Waves Ship Positions

F/V J. Louis Vincent

Last reported at 2015-Jun-30 16:17 UTC. Time now 2015-Jun-30 19:47 UTC.
Position N 43°21' E 003°43'.

Length 29 m.

Type: Fishing. MMSI: 227146600.

Date/timePositionNaut miles runAvg speedWind from/ knotsBaromVisibWave heightAir tempDewpointWater temp
2015-Jun-30 16:17N 43°21' E 003°43'912.5
2015-Jun-30 15:33N 43°12' E 003°46'14 7.0
2015-Jun-30 13:33N 42°58' E 003°47'4 4.0
2015-Jun-30 12:33N 42°56' E 003°42'4 4.1
2015-Jun-30 11:33N 42°53' E 003°38'1 1.5
2015-Jun-30 10:33N 42°53' E 003°36'4 4.0
2015-Jun-30 09:33N 42°50' E 003°32'4 4.0
2015-Jun-30 08:33N 42°47' E 003°34'4 3.6
2015-Jun-30 07:33N 42°44' E 003°37'8 3.7
2015-Jun-30 05:31N 42°51' E 003°33'4 4.1
2015-Jun-30 04:32N 42°55' E 003°34'4 4.3
2015-Jun-30 03:31N 42°59' E 003°34'6 5.9
2015-Jun-30 02:33N 43°05' E 003°35'1211.8
2015-Jun-30 01:33N 43°16' E 003°40'35 2.0
2015-Jun-29 08:28N 42°53' E 004°14'4 4.2
2015-Jun-29 07:33N 42°52' E 004°20'8 3.6
2015-Jun-29 05:19N 42°59' E 004°26'3 4.2
2015-Jun-29 04:33N 43°01' E 004°23'6 6.3
2015-Jun-29 03:33N 43°05' E 004°16'1211.7
2015-Jun-29 02:33N 43°13' E 004°04'1111.5
2015-Jun-29 01:33N 43°20' E 003°51'  
2015-Jun-26 15:30N 43°24' E 003°42'0 0.4
2015-Jun-26 14:33N 43°24' E 003°42'38 8.9
2015-Jun-26 10:20N 42°56' E 004°17'3 4.2
2015-Jun-26 09:33N 42°53' E 004°19'6 1.0
2015-Jun-26 04:04N 42°57' E 004°13'4 6.9
2015-Jun-26 03:33N 43°00' E 004°10'1211.9
2015-Jun-26 02:33N 43°09' E 003°59'1211.7
2015-Jun-26 01:33N 43°18' E 003°49'8 1.0
2015-Jun-25 17:24N 43°24' E 003°42'0 0.5
2015-Jun-25 16:33N 43°24' E 003°42'9 9.4
2015-Jun-25 15:33N 43°20' E 003°54'1312.4
2015-Jun-25 14:31N 43°13' E 004°09'1212.1
2015-Jun-25 13:31N 43°07' E 004°23'1212.2
2015-Jun-25 12:34N 43°01' E 004°37'4 3.5
2015-Jun-25 11:33N 43°01' E 004°41'4 4.4
2015-Jun-25 10:33N 43°02' E 004°47'4 4.3
2015-Jun-25 09:31N 43°02' E 004°53'3 3.5
2015-Jun-25 08:33N 43°03' E 004°58'5 4.6
2015-Jun-25 07:33N 43°02' E 004°52'4 4.4
2015-Jun-25 06:33N 43°01' E 004°46'4 4.2
2015-Jun-25 05:32N 43°01' E 004°40'6 5.7
2015-Jun-25 04:29N 43°02' E 004°32'1111.6
2015-Jun-25 03:33N 43°08' E 004°19'1211.7
2015-Jun-25 02:33N 43°14' E 004°06'1211.6
2015-Jun-25 01:33N 43°20' E 003°52'28 2.1
2015-Jun-24 12:21N 43°03' E 004°22'7 8.3
2015-Jun-24 11:33N 42°60' E 004°29'4 4.1
2015-Jun-24 10:33N 42°58' E 004°35'4 4.1
2015-Jun-24 09:33N 42°58' E 004°40'4 4.4
2015-Jun-24 08:33N 42°59' E 004°46'1 1.4
2015-Jun-24 07:33N 42°58' E 004°45'4 4.2
2015-Jun-24 06:33N 42°59' E 004°39'4 4.1
2015-Jun-24 05:33N 43°01' E 004°34'4 4.0
2015-Jun-24 04:33N 43°01' E 004°28'1310.6
2015-Jun-24 03:21N 43°09' E 004°14'28 0.8
2015-Jun-22 16:20N 43°24' E 003°42'1 1.0
2015-Jun-22 15:33N 43°23' E 003°42'1211.6
2015-Jun-22 14:33N 43°13' E 003°49'8 8.2
2015-Jun-22 13:33N 43°05' E 003°53'5 4.4
2015-Jun-22 12:30N 43°02' E 003°57'15 3.9
2015-Jun-22 08:33N 42°53' E 004°14'5 4.9
2015-Jun-22 07:33N 42°48' E 004°16'1 1.3
2015-Jun-22 06:33N 42°49' E 004°18'4 4.2
2015-Jun-22 05:33N 42°53' E 004°17'4 4.3
2015-Jun-22 04:33N 42°56' E 004°12'7 7.3
2015-Jun-22 03:32N 43°01' E 004°05'1110.8
2015-Jun-22 02:33N 43°09' E 003°56'1111.4
2015-Jun-22 01:33N 43°18' E 003°47'  
Track history (hours):
 
Tides and Currents Weather Stations Pressure Air Temp Water Temp Dewpoint Dewpoint Depression Visibility Wind Speed Wind Dir Waves Ship Positions

F/V J. Louis Vincent

Last reported at 2015-Jun-30 16:17 UTC. Time now 2015-Jun-30 19:47 UTC.
Position N 43°21' E 003°43'.

Length 29 m.

Type: Fishing. MMSI: 227146600.

Date/timePositionNaut miles runAvg speedWind from/ knotsBaromVisibWave heightAir tempDewpointWater temp
2015-Jun-30 16:17N 43°21' E 003°43'912.5
2015-Jun-30 15:33N 43°12' E 003°46'14 7.0
2015-Jun-30 13:33N 42°58' E 003°47'4 4.0
2015-Jun-30 12:33N 42°56' E 003°42'4 4.1
2015-Jun-30 11:33N 42°53' E 003°38'1 1.5
2015-Jun-30 10:33N 42°53' E 003°36'4 4.0
2015-Jun-30 09:33N 42°50' E 003°32'4 4.0
2015-Jun-30 08:33N 42°47' E 003°34'4 3.6
2015-Jun-30 07:33N 42°44' E 003°37'8 3.7
2015-Jun-30 05:31N 42°51' E 003°33'4 4.1
2015-Jun-30 04:32N 42°55' E 003°34'4 4.3
2015-Jun-30 03:31N 42°59' E 003°34'6 5.9
2015-Jun-30 02:33N 43°05' E 003°35'1211.8
2015-Jun-30 01:33N 43°16' E 003°40'35 2.0
2015-Jun-29 08:28N 42°53' E 004°14'4 4.2
2015-Jun-29 07:33N 42°52' E 004°20'8 3.6
2015-Jun-29 05:19N 42°59' E 004°26'3 4.2
2015-Jun-29 04:33N 43°01' E 004°23'6 6.3
2015-Jun-29 03:33N 43°05' E 004°16'1211.7
2015-Jun-29 02:33N 43°13' E 004°04'1111.5
2015-Jun-29 01:33N 43°20' E 003°51'  
2015-Jun-26 15:30N 43°24' E 003°42'0 0.4
2015-Jun-26 14:33N 43°24' E 003°42'38 8.9
2015-Jun-26 10:20N 42°56' E 004°17'3 4.2
2015-Jun-26 09:33N 42°53' E 004°19'6 1.0
2015-Jun-26 04:04N 42°57' E 004°13'4 6.9
2015-Jun-26 03:33N 43°00' E 004°10'1211.9
2015-Jun-26 02:33N 43°09' E 003°59'1211.7
2015-Jun-26 01:33N 43°18' E 003°49'8 1.0
2015-Jun-25 17:24N 43°24' E 003°42'0 0.5
2015-Jun-25 16:33N 43°24' E 003°42'9 9.4
2015-Jun-25 15:33N 43°20' E 003°54'1312.4
2015-Jun-25 14:31N 43°13' E 004°09'1212.1
2015-Jun-25 13:31N 43°07' E 004°23'1212.2
2015-Jun-25 12:34N 43°01' E 004°37'4 3.5
2015-Jun-25 11:33N 43°01' E 004°41'4 4.4
2015-Jun-25 10:33N 43°02' E 004°47'4 4.3
2015-Jun-25 09:31N 43°02' E 004°53'3 3.5
2015-Jun-25 08:33N 43°03' E 004°58'5 4.6
2015-Jun-25 07:33N 43°02' E 004°52'4 4.4
2015-Jun-25 06:33N 43°01' E 004°46'4 4.2
2015-Jun-25 05:32N 43°01' E 004°40'6 5.7
2015-Jun-25 04:29N 43°02' E 004°32'1111.6
2015-Jun-25 03:33N 43°08' E 004°19'1211.7
2015-Jun-25 02:33N 43°14' E 004°06'1211.6
2015-Jun-25 01:33N 43°20' E 003°52'28 2.1
2015-Jun-24 12:21N 43°03' E 004°22'7 8.3
2015-Jun-24 11:33N 42°60' E 004°29'4 4.1
2015-Jun-24 10:33N 42°58' E 004°35'4 4.1
2015-Jun-24 09:33N 42°58' E 004°40'4 4.4
2015-Jun-24 08:33N 42°59' E 004°46'1 1.4
2015-Jun-24 07:33N 42°58' E 004°45'4 4.2
2015-Jun-24 06:33N 42°59' E 004°39'4 4.1
2015-Jun-24 05:33N 43°01' E 004°34'4 4.0
2015-Jun-24 04:33N 43°01' E 004°28'1310.6
2015-Jun-24 03:21N 43°09' E 004°14'28 0.8
2015-Jun-22 16:20N 43°24' E 003°42'1 1.0
2015-Jun-22 15:33N 43°23' E 003°42'1211.6
2015-Jun-22 14:33N 43°13' E 003°49'8 8.2
2015-Jun-22 13:33N 43°05' E 003°53'5 4.4
2015-Jun-22 12:30N 43°02' E 003°57'15 3.9
2015-Jun-22 08:33N 42°53' E 004°14'5 4.9
2015-Jun-22 07:33N 42°48' E 004°16'1 1.3
2015-Jun-22 06:33N 42°49' E 004°18'4 4.2
2015-Jun-22 05:33N 42°53' E 004°17'4 4.3
2015-Jun-22 04:33N 42°56' E 004°12'7 7.3
2015-Jun-22 03:32N 43°01' E 004°05'1110.8
2015-Jun-22 02:33N 43°09' E 003°56'1111.4
2015-Jun-22 01:33N 43°18' E 003°47'  

Dump ship's entire track history